sensor_id;sensor_type;location;lat;lon;timestamp;temperature;humidity
52943;DHT22;38809;53.300;6.614;2023-07-30T00:01:33;16.60;99.90
52943;DHT22;38809;53.300;6.614;2023-07-30T00:03:59;16.70;99.90
52943;DHT22;38809;53.300;6.614;2023-07-30T00:06:24;16.70;99.90
52943;DHT22;38809;53.300;6.614;2023-07-30T00:08:50;16.70;99.90
52943;DHT22;38809;53.300;6.614;2023-07-30T00:11:16;16.70;99.90
52943;DHT22;38809;53.300;6.614;2023-07-30T00:13:42;16.80;99.90
52943;DHT22;38809;53.300;6.614;2023-07-30T00:16:08;16.80;99.90
52943;DHT22;38809;53.300;6.614;2023-07-30T00:18:33;16.90;99.90
52943;DHT22;38809;53.300;6.614;2023-07-30T00:20:59;16.80;99.90
52943;DHT22;38809;53.300;6.614;2023-07-30T00:23:25;16.80;99.90
52943;DHT22;38809;53.300;6.614;2023-07-30T00:25:51;16.80;99.90
52943;DHT22;38809;53.300;6.614;2023-07-30T00:28:16;16.90;99.90
52943;DHT22;38809;53.300;6.614;2023-07-30T00:30:42;16.80;99.90
52943;DHT22;38809;53.300;6.614;2023-07-30T00:33:08;16.80;99.90
52943;DHT22;38809;53.300;6.614;2023-07-30T00:35:33;16.80;99.90
52943;DHT22;38809;53.300;6.614;2023-07-30T00:37:59;16.70;99.90
52943;DHT22;38809;53.300;6.614;2023-07-30T00:40:25;16.70;99.90
52943;DHT22;38809;53.300;6.614;2023-07-30T00:42:50;16.70;99.90
52943;DHT22;38809;53.300;6.614;2023-07-30T00:45:16;16.60;99.90
52943;DHT22;38809;53.300;6.614;2023-07-30T00:47:42;16.60;99.90
52943;DHT22;38809;53.300;6.614;2023-07-30T00:50:08;16.80;99.90
52943;DHT22;38809;53.300;6.614;2023-07-30T00:52:35;16.80;99.90
52943;DHT22;38809;53.300;6.614;2023-07-30T00:55:02;16.70;99.90
52943;DHT22;38809;53.300;6.614;2023-07-30T00:57:28;16.70;99.90
52943;DHT22;38809;53.300;6.614;2023-07-30T00:59:56;16.80;99.90
52943;DHT22;38809;53.300;6.614;2023-07-30T01:02:22;16.70;99.90
52943;DHT22;38809;53.300;6.614;2023-07-30T01:04:49;16.70;99.90
52943;DHT22;38809;53.300;6.614;2023-07-30T01:07:15;16.70;99.90
52943;DHT22;38809;53.300;6.614;2023-07-30T01:09:40;16.70;99.90
52943;DHT22;38809;53.300;6.614;2023-07-30T01:12:06;16.70;99.90
52943;DHT22;38809;53.300;6.614;2023-07-30T01:14:33;17.20;99.90
52943;DHT22;38809;53.300;6.614;2023-07-30T01:17:00;16.70;99.90
52943;DHT22;38809;53.300;6.614;2023-07-30T01:19:26;16.70;99.90
52943;DHT22;38809;53.300;6.614;2023-07-30T01:21:51;16.70;99.90
52943;DHT22;38809;53.300;6.614;2023-07-30T01:24:17;16.70;99.90
52943;DHT22;38809;53.300;6.614;2023-07-30T01:27:02;16.60;99.90
52943;DHT22;38809;53.300;6.614;2023-07-30T01:29:38;16.80;99.90
52943;DHT22;38809;53.300;6.614;2023-07-30T01:32:08;16.70;99.90
52943;DHT22;38809;53.300;6.614;2023-07-30T01:34:37;16.70;99.90
52943;DHT22;38809;53.300;6.614;2023-07-30T01:37:08;16.80;99.90
52943;DHT22;38809;53.300;6.614;2023-07-30T01:39:36;16.70;99.90
52943;DHT22;38809;53.300;6.614;2023-07-30T01:42:03;16.70;99.90
52943;DHT22;38809;53.300;6.614;2023-07-30T01:44:29;16.80;99.90
52943;DHT22;38809;53.300;6.614;2023-07-30T01:46:55;16.70;99.90
52943;DHT22;38809;53.300;6.614;2023-07-30T01:49:21;16.80;99.90
52943;DHT22;38809;53.300;6.614;2023-07-30T01:51:46;16.80;99.90
52943;DHT22;38809;53.300;6.614;2023-07-30T01:54:12;16.80;99.90
52943;DHT22;38809;53.300;6.614;2023-07-30T01:56:38;16.60;99.90
52943;DHT22;38809;53.300;6.614;2023-07-30T01:59:04;16.70;99.90
52943;DHT22;38809;53.300;6.614;2023-07-30T02:01:30;16.80;99.90
52943;DHT22;38809;53.300;6.614;2023-07-30T02:03:56;16.70;99.90
52943;DHT22;38809;53.300;6.614;2023-07-30T02:06:21;16.70;99.90
52943;DHT22;38809;53.300;6.614;2023-07-30T02:08:47;16.70;99.90
52943;DHT22;38809;53.300;6.614;2023-07-30T02:11:13;16.60;99.90
52943;DHT22;38809;53.300;6.614;2023-07-30T02:13:38;16.70;99.90
52943;DHT22;38809;53.300;6.614;2023-07-30T02:16:04;16.80;99.90
52943;DHT22;38809;53.300;6.614;2023-07-30T02:18:30;16.70;99.90
52943;DHT22;38809;53.300;6.614;2023-07-30T02:20:55;16.80;99.90
52943;DHT22;38809;53.300;6.614;2023-07-30T02:23:21;16.80;99.90
52943;DHT22;38809;53.300;6.614;2023-07-30T02:25:47;16.80;99.90
52943;DHT22;38809;53.300;6.614;2023-07-30T02:28:12;16.80;99.90
52943;DHT22;38809;53.300;6.614;2023-07-30T02:30:38;16.70;99.90
52943;DHT22;38809;53.300;6.614;2023-07-30T02:33:04;16.80;99.90
52943;DHT22;38809;53.300;6.614;2023-07-30T02:35:29;16.80;99.90
52943;DHT22;38809;53.300;6.614;2023-07-30T02:37:55;16.80;99.90
52943;DHT22;38809;53.300;6.614;2023-07-30T02:40:20;16.80;99.90
52943;DHT22;38809;53.300;6.614;2023-07-30T02:42:46;16.80;99.90
52943;DHT22;38809;53.300;6.614;2023-07-30T02:45:12;16.80;99.90
52943;DHT22;38809;53.300;6.614;2023-07-30T02:47:37;16.80;99.90
52943;DHT22;38809;53.300;6.614;2023-07-30T02:50:04;16.90;99.90
52943;DHT22;38809;53.300;6.614;2023-07-30T02:52:30;16.80;99.90
52943;DHT22;38809;53.300;6.614;2023-07-30T02:54:55;16.80;99.90
52943;DHT22;38809;53.300;6.614;2023-07-30T02:57:21;16.80;99.90
52943;DHT22;38809;53.300;6.614;2023-07-30T02:59:46;16.80;99.90
52943;DHT22;38809;53.300;6.614;2023-07-30T03:02:12;16.80;99.90
52943;DHT22;38809;53.300;6.614;2023-07-30T03:04:38;16.80;99.90
52943;DHT22;38809;53.300;6.614;2023-07-30T03:07:04;16.80;99.90
52943;DHT22;38809;53.300;6.614;2023-07-30T03:09:30;16.80;99.90
52943;DHT22;38809;53.300;6.614;2023-07-30T03:11:55;16.80;99.90
52943;DHT22;38809;53.300;6.614;2023-07-30T03:14:21;16.80;99.90
52943;DHT22;38809;53.300;6.614;2023-07-30T03:16:47;16.80;99.90
52943;DHT22;38809;53.300;6.614;2023-07-30T03:19:13;16.80;99.90
52943;DHT22;38809;53.300;6.614;2023-07-30T03:21:39;16.70;99.90
52943;DHT22;38809;53.300;6.614;2023-07-30T03:24:05;16.60;99.90
52943;DHT22;38809;53.300;6.614;2023-07-30T03:26:30;16.70;99.90
52943;DHT22;38809;53.300;6.614;2023-07-30T03:28:56;16.60;99.90
52943;DHT22;38809;53.300;6.614;2023-07-30T03:31:22;16.60;99.90
52943;DHT22;38809;53.300;6.614;2023-07-30T03:33:47;16.50;99.90
52943;DHT22;38809;53.300;6.614;2023-07-30T03:36:14;16.50;99.90
52943;DHT22;38809;53.300;6.614;2023-07-30T03:38:40;16.50;99.90
52943;DHT22;38809;53.300;6.614;2023-07-30T03:41:06;16.50;99.90
52943;DHT22;38809;53.300;6.614;2023-07-30T03:43:33;16.50;99.90
52943;DHT22;38809;53.300;6.614;2023-07-30T03:45:58;16.50;99.90
52943;DHT22;38809;53.300;6.614;2023-07-30T03:48:24;16.50;99.90
52943;DHT22;38809;53.300;6.614;2023-07-30T03:50:50;16.50;99.90
52943;DHT22;38809;53.300;6.614;2023-07-30T03:53:15;16.50;99.90
52943;DHT22;38809;53.300;6.614;2023-07-30T03:55:41;16.50;99.90
52943;DHT22;38809;53.300;6.614;2023-07-30T03:58:07;16.40;99.90
52943;DHT22;38809;53.300;6.614;2023-07-30T04:00:33;16.40;99.90
52943;DHT22;38809;53.300;6.614;2023-07-30T04:02:59;16.50;99.90
52943;DHT22;38809;53.300;6.614;2023-07-30T04:05:24;16.40;99.90
52943;DHT22;38809;53.300;6.614;2023-07-30T04:07:50;16.40;99.90
52943;DHT22;38809;53.300;6.614;2023-07-30T04:10:16;16.40;99.90
52943;DHT22;38809;53.300;6.614;2023-07-30T04:12:41;16.40;99.90
52943;DHT22;38809;53.300;6.614;2023-07-30T04:15:07;16.40;99.90
52943;DHT22;38809;53.300;6.614;2023-07-30T04:17:36;16.50;99.90
52943;DHT22;38809;53.300;6.614;2023-07-30T04:20:02;16.40;99.90
52943;DHT22;38809;53.300;6.614;2023-07-30T04:22:28;16.40;99.90
52943;DHT22;38809;53.300;6.614;2023-07-30T04:24:53;16.40;99.90
52943;DHT22;38809;53.300;6.614;2023-07-30T04:27:19;16.40;99.90
52943;DHT22;38809;53.300;6.614;2023-07-30T04:29:45;16.40;99.90
52943;DHT22;38809;53.300;6.614;2023-07-30T04:32:10;16.50;99.90
52943;DHT22;38809;53.300;6.614;2023-07-30T04:34:36;16.50;99.90
52943;DHT22;38809;53.300;6.614;2023-07-30T04:37:02;16.40;99.90
52943;DHT22;38809;53.300;6.614;2023-07-30T04:39:29;16.50;99.90
52943;DHT22;38809;53.300;6.614;2023-07-30T04:41:55;16.40;99.90
52943;DHT22;38809;53.300;6.614;2023-07-30T04:44:20;16.50;99.90
52943;DHT22;38809;53.300;6.614;2023-07-30T04:46:46;16.60;99.90
52943;DHT22;38809;53.300;6.614;2023-07-30T04:49:12;16.50;99.90
52943;DHT22;38809;53.300;6.614;2023-07-30T04:51:37;16.90;99.90
52943;DHT22;38809;53.300;6.614;2023-07-30T04:54:03;16.90;99.90
52943;DHT22;38809;53.300;6.614;2023-07-30T04:56:29;16.90;99.90
52943;DHT22;38809;53.300;6.614;2023-07-30T04:58:55;16.90;99.90
52943;DHT22;38809;53.300;6.614;2023-07-30T05:01:20;17.10;99.90
52943;DHT22;38809;53.300;6.614;2023-07-30T05:03:46;17.40;99.90
52943;DHT22;38809;53.300;6.614;2023-07-30T05:06:12;17.40;99.90
52943;DHT22;38809;53.300;6.614;2023-07-30T05:08:38;17.30;99.90
52943;DHT22;38809;53.300;6.614;2023-07-30T05:11:03;17.30;99.90
52943;DHT22;38809;53.300;6.614;2023-07-30T05:13:29;17.20;99.90
52943;DHT22;38809;53.300;6.614;2023-07-30T05:15:54;17.10;99.90
52943;DHT22;38809;53.300;6.614;2023-07-30T05:18:20;17.00;99.90
52943;DHT22;38809;53.300;6.614;2023-07-30T05:20:46;17.10;99.90
52943;DHT22;38809;53.300;6.614;2023-07-30T05:23:12;17.00;99.90
52943;DHT22;38809;53.300;6.614;2023-07-30T05:25:38;17.00;99.90
52943;DHT22;38809;53.300;6.614;2023-07-30T05:28:03;16.90;99.90
52943;DHT22;38809;53.300;6.614;2023-07-30T05:30:29;17.00;99.90
52943;DHT22;38809;53.300;6.614;2023-07-30T05:32:55;17.00;99.90
52943;DHT22;38809;53.300;6.614;2023-07-30T05:35:22;17.10;99.90
52943;DHT22;38809;53.300;6.614;2023-07-30T05:37:47;17.00;99.90
52943;DHT22;38809;53.300;6.614;2023-07-30T05:40:13;17.00;99.90
52943;DHT22;38809;53.300;6.614;2023-07-30T05:42:39;17.10;99.90
52943;DHT22;38809;53.300;6.614;2023-07-30T05:45:05;17.10;99.90
52943;DHT22;38809;53.300;6.614;2023-07-30T05:47:31;17.20;99.90
52943;DHT22;38809;53.300;6.614;2023-07-30T05:49:56;17.20;99.90
52943;DHT22;38809;53.300;6.614;2023-07-30T05:52:22;17.30;99.90
52943;DHT22;38809;53.300;6.614;2023-07-30T05:54:47;17.30;99.90
52943;DHT22;38809;53.300;6.614;2023-07-30T05:57:13;17.30;99.90
52943;DHT22;38809;53.300;6.614;2023-07-30T05:59:39;17.30;99.90
52943;DHT22;38809;53.300;6.614;2023-07-30T06:02:05;17.40;99.90
52943;DHT22;38809;53.300;6.614;2023-07-30T06:04:30;17.50;99.90
52943;DHT22;38809;53.300;6.614;2023-07-30T06:06:59;17.50;99.90
52943;DHT22;38809;53.300;6.614;2023-07-30T06:09:24;17.50;99.90
52943;DHT22;38809;53.300;6.614;2023-07-30T06:11:50;17.60;99.90
52943;DHT22;38809;53.300;6.614;2023-07-30T06:14:16;17.60;99.90
52943;DHT22;38809;53.300;6.614;2023-07-30T06:16:41;17.60;99.90
52943;DHT22;38809;53.300;6.614;2023-07-30T06:19:08;17.60;99.90
52943;DHT22;38809;53.300;6.614;2023-07-30T06:21:34;17.50;99.90
52943;DHT22;38809;53.300;6.614;2023-07-30T06:24:00;17.50;99.90
52943;DHT22;38809;53.300;6.614;2023-07-30T06:26:25;17.60;99.90
52943;DHT22;38809;53.300;6.614;2023-07-30T06:28:51;17.50;99.90
52943;DHT22;38809;53.300;6.614;2023-07-30T06:31:17;17.60;99.90
52943;DHT22;38809;53.300;6.614;2023-07-30T06:33:43;18.10;99.90
52943;DHT22;38809;53.300;6.614;2023-07-30T06:36:08;17.80;99.90
52943;DHT22;38809;53.300;6.614;2023-07-30T06:38:34;17.70;99.90
52943;DHT22;38809;53.300;6.614;2023-07-30T06:41:00;17.70;99.90
52943;DHT22;38809;53.300;6.614;2023-07-30T06:43:26;17.70;99.90
52943;DHT22;38809;53.300;6.614;2023-07-30T06:45:53;17.70;99.90
52943;DHT22;38809;53.300;6.614;2023-07-30T06:48:19;17.80;99.90
52943;DHT22;38809;53.300;6.614;2023-07-30T06:50:44;17.80;99.90
52943;DHT22;38809;53.300;6.614;2023-07-30T06:53:10;17.90;99.90
52943;DHT22;38809;53.300;6.614;2023-07-30T06:55:36;18.40;99.90
52943;DHT22;38809;53.300;6.614;2023-07-30T06:58:01;17.90;99.90
52943;DHT22;38809;53.300;6.614;2023-07-30T07:00:27;17.90;99.90
52943;DHT22;38809;53.300;6.614;2023-07-30T07:02:53;17.80;99.90
52943;DHT22;38809;53.300;6.614;2023-07-30T07:05:19;17.80;99.90
52943;DHT22;38809;53.300;6.614;2023-07-30T07:07:45;17.80;99.90
52943;DHT22;38809;53.300;6.614;2023-07-30T07:10:11;17.80;99.90
52943;DHT22;38809;53.300;6.614;2023-07-30T07:12:38;17.60;99.90
52943;DHT22;38809;53.300;6.614;2023-07-30T07:15:04;17.80;99.90
52943;DHT22;38809;53.300;6.614;2023-07-30T07:17:30;18.00;99.90
52943;DHT22;38809;53.300;6.614;2023-07-30T07:19:57;17.90;99.90
52943;DHT22;38809;53.300;6.614;2023-07-30T07:22:23;18.00;99.90
52943;DHT22;38809;53.300;6.614;2023-07-30T07:24:48;18.10;99.90
52943;DHT22;38809;53.300;6.614;2023-07-30T07:27:14;18.30;99.90
52943;DHT22;38809;53.300;6.614;2023-07-30T07:29:40;18.50;99.90
52943;DHT22;38809;53.300;6.614;2023-07-30T07:32:06;18.60;99.90
52943;DHT22;38809;53.300;6.614;2023-07-30T07:34:32;18.90;99.90
52943;DHT22;38809;53.300;6.614;2023-07-30T07:36:57;19.00;99.90
52943;DHT22;38809;53.300;6.614;2023-07-30T07:39:23;19.10;99.90
52943;DHT22;38809;53.300;6.614;2023-07-30T07:41:49;19.20;99.90
52943;DHT22;38809;53.300;6.614;2023-07-30T07:44:14;19.20;99.90
52943;DHT22;38809;53.300;6.614;2023-07-30T07:46:40;19.40;99.90
52943;DHT22;38809;53.300;6.614;2023-07-30T07:49:06;19.70;99.90
52943;DHT22;38809;53.300;6.614;2023-07-30T07:51:34;19.70;99.90
52943;DHT22;38809;53.300;6.614;2023-07-30T07:53:59;19.80;99.90
52943;DHT22;38809;53.300;6.614;2023-07-30T07:56:25;19.50;99.90
52943;DHT22;38809;53.300;6.614;2023-07-30T07:58:51;19.40;99.90
52943;DHT22;38809;53.300;6.614;2023-07-30T08:01:16;19.20;99.90
52943;DHT22;38809;53.300;6.614;2023-07-30T08:03:42;19.00;99.90
52943;DHT22;38809;53.300;6.614;2023-07-30T08:06:08;19.00;99.90
52943;DHT22;38809;53.300;6.614;2023-07-30T08:08:34;19.00;99.90
52943;DHT22;38809;53.300;6.614;2023-07-30T08:11:05;19.00;99.90
52943;DHT22;38809;53.300;6.614;2023-07-30T08:13:32;19.10;99.90
52943;DHT22;38809;53.300;6.614;2023-07-30T08:15:57;18.90;99.90
52943;DHT22;38809;53.300;6.614;2023-07-30T08:18:23;19.00;99.90
52943;DHT22;38809;53.300;6.614;2023-07-30T08:20:50;18.90;99.90
52943;DHT22;38809;53.300;6.614;2023-07-30T08:23:15;18.90;99.90
52943;DHT22;38809;53.300;6.614;2023-07-30T08:25:41;19.10;99.90
52943;DHT22;38809;53.300;6.614;2023-07-30T08:28:07;19.20;99.90
52943;DHT22;38809;53.300;6.614;2023-07-30T08:30:33;19.20;99.90
52943;DHT22;38809;53.300;6.614;2023-07-30T08:32:58;19.10;99.90
52943;DHT22;38809;53.300;6.614;2023-07-30T08:35:24;19.10;99.90
52943;DHT22;38809;53.300;6.614;2023-07-30T08:37:50;19.30;99.90
52943;DHT22;38809;53.300;6.614;2023-07-30T08:40:15;19.30;99.90
52943;DHT22;38809;53.300;6.614;2023-07-30T08:42:41;19.30;99.90
52943;DHT22;38809;53.300;6.614;2023-07-30T08:45:07;19.40;99.90
52943;DHT22;38809;53.300;6.614;2023-07-30T08:47:37;19.30;99.90
52943;DHT22;38809;53.300;6.614;2023-07-30T08:50:03;19.20;99.90
52943;DHT22;38809;53.300;6.614;2023-07-30T08:52:29;19.20;99.90
52943;DHT22;38809;53.300;6.614;2023-07-30T08:54:57;19.20;99.90
52943;DHT22;38809;53.300;6.614;2023-07-30T08:57:29;19.20;99.90
52943;DHT22;38809;53.300;6.614;2023-07-30T09:02:33;19.40;99.90
52943;DHT22;38809;53.300;6.614;2023-07-30T09:05:00;19.50;99.90
52943;DHT22;38809;53.300;6.614;2023-07-30T09:07:27;19.40;99.90
52943;DHT22;38809;53.300;6.614;2023-07-30T09:09:52;19.40;99.90
52943;DHT22;38809;53.300;6.614;2023-07-30T09:12:18;19.60;99.90
52943;DHT22;38809;53.300;6.614;2023-07-30T09:14:44;19.40;99.90
52943;DHT22;38809;53.300;6.614;2023-07-30T09:17:17;19.50;99.90
52943;DHT22;38809;53.300;6.614;2023-07-30T09:19:43;19.50;99.90
52943;DHT22;38809;53.300;6.614;2023-07-30T09:22:09;19.50;99.90
52943;DHT22;38809;53.300;6.614;2023-07-30T09:24:34;19.50;99.90
52943;DHT22;38809;53.300;6.614;2023-07-30T09:27:04;19.30;99.90
52943;DHT22;38809;53.300;6.614;2023-07-30T09:29:29;19.20;99.90
52943;DHT22;38809;53.300;6.614;2023-07-30T09:31:55;19.40;99.90
52943;DHT22;38809;53.300;6.614;2023-07-30T09:34:23;18.70;99.90
52943;DHT22;38809;53.300;6.614;2023-07-30T09:36:55;18.40;99.90
52943;DHT22;38809;53.300;6.614;2023-07-30T09:39:23;18.30;99.90
52943;DHT22;38809;53.300;6.614;2023-07-30T09:41:51;18.20;99.90
52943;DHT22;38809;53.300;6.614;2023-07-30T09:44:18;18.30;99.90
52943;DHT22;38809;53.300;6.614;2023-07-30T09:46:46;18.10;99.90
52943;DHT22;38809;53.300;6.614;2023-07-30T09:49:12;18.10;99.90
52943;DHT22;38809;53.300;6.614;2023-07-30T09:51:38;18.20;99.90
52943;DHT22;38809;53.300;6.614;2023-07-30T09:54:06;18.30;99.90
52943;DHT22;38809;53.300;6.614;2023-07-30T09:56:33;18.60;99.90
52943;DHT22;38809;53.300;6.614;2023-07-30T09:58:59;18.60;99.90
52943;DHT22;38809;53.300;6.614;2023-07-30T10:01:26;18.60;99.90
52943;DHT22;38809;53.300;6.614;2023-07-30T10:03:56;18.90;99.90
52943;DHT22;38809;53.300;6.614;2023-07-30T10:06:23;18.90;99.90
52943;DHT22;38809;53.300;6.614;2023-07-30T10:08:53;19.00;99.90
52943;DHT22;38809;53.300;6.614;2023-07-30T10:11:20;18.90;99.90
52943;DHT22;38809;53.300;6.614;2023-07-30T10:13:46;18.90;99.90
52943;DHT22;38809;53.300;6.614;2023-07-30T10:16:12;19.00;99.90
52943;DHT22;38809;53.300;6.614;2023-07-30T10:18:38;18.90;99.90
52943;DHT22;38809;53.300;6.614;2023-07-30T10:21:10;19.20;99.90
52943;DHT22;38809;53.300;6.614;2023-07-30T10:23:46;19.70;99.90
52943;DHT22;38809;53.300;6.614;2023-07-30T10:26:12;19.90;99.90
52943;DHT22;38809;53.300;6.614;2023-07-30T10:28:37;20.30;99.90
52943;DHT22;38809;53.300;6.614;2023-07-30T10:31:08;20.50;99.90
52943;DHT22;38809;53.300;6.614;2023-07-30T10:33:50;20.20;99.90
52943;DHT22;38809;53.300;6.614;2023-07-30T10:36:42;20.60;99.90
52943;DHT22;38809;53.300;6.614;2023-07-30T10:39:20;20.70;99.90
52943;DHT22;38809;53.300;6.614;2023-07-30T10:41:52;20.50;99.90
52943;DHT22;38809;53.300;6.614;2023-07-30T10:44:30;20.30;99.90
52943;DHT22;38809;53.300;6.614;2023-07-30T10:46:57;19.80;99.90
52943;DHT22;38809;53.300;6.614;2023-07-30T10:49:23;19.70;99.90
52943;DHT22;38809;53.300;6.614;2023-07-30T10:51:52;20.30;99.90
52943;DHT22;38809;53.300;6.614;2023-07-30T10:54:18;20.80;99.90
52943;DHT22;38809;53.300;6.614;2023-07-30T10:56:44;21.10;99.90
52943;DHT22;38809;53.300;6.614;2023-07-30T10:59:11;20.80;99.90
52943;DHT22;38809;53.300;6.614;2023-07-30T11:01:42;20.70;99.90
52943;DHT22;38809;53.300;6.614;2023-07-30T11:04:16;21.00;99.90
52943;DHT22;38809;53.300;6.614;2023-07-30T11:06:46;20.30;99.90
52943;DHT22;38809;53.300;6.614;2023-07-30T11:09:19;20.70;99.90
52943;DHT22;38809;53.300;6.614;2023-07-30T11:11:46;21.10;99.90
52943;DHT22;38809;53.300;6.614;2023-07-30T11:14:38;21.60;99.90
52943;DHT22;38809;53.300;6.614;2023-07-30T11:17:03;21.50;99.90
52943;DHT22;38809;53.300;6.614;2023-07-30T11:19:29;21.70;99.90
52943;DHT22;38809;53.300;6.614;2023-07-30T11:21:56;21.70;99.90
52943;DHT22;38809;53.300;6.614;2023-07-30T11:24:22;21.30;99.90
52943;DHT22;38809;53.300;6.614;2023-07-30T11:26:59;21.20;99.90
52943;DHT22;38809;53.300;6.614;2023-07-30T11:29:25;21.50;99.90
52943;DHT22;38809;53.300;6.614;2023-07-30T11:31:51;21.50;99.90
52943;DHT22;38809;53.300;6.614;2023-07-30T11:34:17;21.40;99.90
52943;DHT22;38809;53.300;6.614;2023-07-30T11:36:44;21.40;99.90
52943;DHT22;38809;53.300;6.614;2023-07-30T11:39:10;21.40;99.90
52943;DHT22;38809;53.300;6.614;2023-07-30T11:41:37;21.40;99.90
52943;DHT22;38809;53.300;6.614;2023-07-30T11:44:03;21.00;99.90
52943;DHT22;38809;53.300;6.614;2023-07-30T11:46:30;21.30;99.90
52943;DHT22;38809;53.300;6.614;2023-07-30T11:49:16;21.60;99.90
52943;DHT22;38809;53.300;6.614;2023-07-30T11:51:47;21.60;99.90
52943;DHT22;38809;53.300;6.614;2023-07-30T11:54:21;21.40;99.90
52943;DHT22;38809;53.300;6.614;2023-07-30T11:56:54;21.40;99.90
52943;DHT22;38809;53.300;6.614;2023-07-30T11:59:20;21.60;99.90
52943;DHT22;38809;53.300;6.614;2023-07-30T12:01:47;21.70;99.90
52943;DHT22;38809;53.300;6.614;2023-07-30T12:04:13;21.70;99.90
52943;DHT22;38809;53.300;6.614;2023-07-30T12:06:49;21.10;99.90
52943;DHT22;38809;53.300;6.614;2023-07-30T12:09:22;21.10;99.90
52943;DHT22;38809;53.300;6.614;2023-07-30T12:11:51;21.10;99.90
52943;DHT22;38809;53.300;6.614;2023-07-30T12:14:18;21.20;99.90
52943;DHT22;38809;53.300;6.614;2023-07-30T12:16:43;21.60;99.90
52943;DHT22;38809;53.300;6.614;2023-07-30T12:19:09;21.00;99.90
52943;DHT22;38809;53.300;6.614;2023-07-30T12:21:35;21.10;99.90
52943;DHT22;38809;53.300;6.614;2023-07-30T12:24:01;21.00;99.90
52943;DHT22;38809;53.300;6.614;2023-07-30T12:26:29;21.00;99.90
52943;DHT22;38809;53.300;6.614;2023-07-30T12:28:54;20.70;99.90
52943;DHT22;38809;53.300;6.614;2023-07-30T12:31:20;20.50;99.90
52943;DHT22;38809;53.300;6.614;2023-07-30T12:33:46;20.60;99.90
52943;DHT22;38809;53.300;6.614;2023-07-30T12:36:12;20.90;99.90
52943;DHT22;38809;53.300;6.614;2023-07-30T12:38:37;20.90;99.90
52943;DHT22;38809;53.300;6.614;2023-07-30T12:41:03;21.30;99.90
52943;DHT22;38809;53.300;6.614;2023-07-30T12:43:29;21.60;99.90
52943;DHT22;38809;53.300;6.614;2023-07-30T12:45:54;21.40;99.90
52943;DHT22;38809;53.300;6.614;2023-07-30T12:48:20;21.50;99.90
52943;DHT22;38809;53.300;6.614;2023-07-30T12:50:46;21.70;99.90
52943;DHT22;38809;53.300;6.614;2023-07-30T12:53:11;21.80;99.90
52943;DHT22;38809;53.300;6.614;2023-07-30T12:55:37;21.30;99.90
52943;DHT22;38809;53.300;6.614;2023-07-30T12:58:04;21.50;99.90
52943;DHT22;38809;53.300;6.614;2023-07-30T13:00:30;21.70;99.90
52943;DHT22;38809;53.300;6.614;2023-07-30T13:02:55;22.20;99.90
52943;DHT22;38809;53.300;6.614;2023-07-30T13:05:22;21.70;99.90
52943;DHT22;38809;53.300;6.614;2023-07-30T13:07:48;21.90;99.90
52943;DHT22;38809;53.300;6.614;2023-07-30T13:10:14;22.10;99.90
52943;DHT22;38809;53.300;6.614;2023-07-30T13:12:40;21.70;99.90
52943;DHT22;38809;53.300;6.614;2023-07-30T13:15:06;21.70;99.90
52943;DHT22;38809;53.300;6.614;2023-07-30T13:17:32;22.10;99.90
52943;DHT22;38809;53.300;6.614;2023-07-30T13:19:58;22.00;99.90
52943;DHT22;38809;53.300;6.614;2023-07-30T13:22:24;22.10;99.90
52943;DHT22;38809;53.300;6.614;2023-07-30T13:24:50;22.00;99.90
52943;DHT22;38809;53.300;6.614;2023-07-30T13:27:17;22.10;99.90
52943;DHT22;38809;53.300;6.614;2023-07-30T13:29:43;21.60;99.90
52943;DHT22;38809;53.300;6.614;2023-07-30T13:32:08;21.50;99.90
52943;DHT22;38809;53.300;6.614;2023-07-30T13:34:34;21.30;99.90
52943;DHT22;38809;53.300;6.614;2023-07-30T13:37:00;21.30;99.90
52943;DHT22;38809;53.300;6.614;2023-07-30T13:39:26;21.30;99.90
52943;DHT22;38809;53.300;6.614;2023-07-30T13:41:51;21.10;99.90
52943;DHT22;38809;53.300;6.614;2023-07-30T13:44:17;20.90;99.90
52943;DHT22;38809;53.300;6.614;2023-07-30T13:46:43;20.80;99.90
52943;DHT22;38809;53.300;6.614;2023-07-30T13:49:08;20.90;99.90
52943;DHT22;38809;53.300;6.614;2023-07-30T13:51:34;20.90;99.90
52943;DHT22;38809;53.300;6.614;2023-07-30T13:54:00;21.20;99.90
52943;DHT22;38809;53.300;6.614;2023-07-30T13:56:27;21.20;99.90
52943;DHT22;38809;53.300;6.614;2023-07-30T13:58:54;21.10;99.90
52943;DHT22;38809;53.300;6.614;2023-07-30T14:01:19;21.00;99.90
52943;DHT22;38809;53.300;6.614;2023-07-30T14:03:45;21.10;99.90
52943;DHT22;38809;53.300;6.614;2023-07-30T14:06:11;21.10;99.90
52943;DHT22;38809;53.300;6.614;2023-07-30T14:08:37;20.90;99.90
52943;DHT22;38809;53.300;6.614;2023-07-30T14:11:03;21.00;99.90
52943;DHT22;38809;53.300;6.614;2023-07-30T14:13:28;21.00;99.90
52943;DHT22;38809;53.300;6.614;2023-07-30T14:15:54;21.20;99.90
52943;DHT22;38809;53.300;6.614;2023-07-30T14:18:21;21.20;99.90
52943;DHT22;38809;53.300;6.614;2023-07-30T14:20:46;21.00;99.90
52943;DHT22;38809;53.300;6.614;2023-07-30T14:23:12;21.20;99.90
52943;DHT22;38809;53.300;6.614;2023-07-30T14:25:38;21.30;99.90
52943;DHT22;38809;53.300;6.614;2023-07-30T14:28:04;21.50;99.90
52943;DHT22;38809;53.300;6.614;2023-07-30T14:30:30;21.60;99.90
52943;DHT22;38809;53.300;6.614;2023-07-30T14:32:55;21.50;99.90
52943;DHT22;38809;53.300;6.614;2023-07-30T14:35:21;21.50;99.90
52943;DHT22;38809;53.300;6.614;2023-07-30T14:37:47;21.20;99.90
52943;DHT22;38809;53.300;6.614;2023-07-30T14:40:14;21.40;99.90
52943;DHT22;38809;53.300;6.614;2023-07-30T14:42:40;21.70;99.90
52943;DHT22;38809;53.300;6.614;2023-07-30T14:45:06;21.60;99.90
52943;DHT22;38809;53.300;6.614;2023-07-30T14:47:32;21.30;99.90
52943;DHT22;38809;53.300;6.614;2023-07-30T14:49:58;22.00;99.90
52943;DHT22;38809;53.300;6.614;2023-07-30T14:52:24;21.70;99.90
52943;DHT22;38809;53.300;6.614;2023-07-30T14:54:50;21.40;99.90
52943;DHT22;38809;53.300;6.614;2023-07-30T14:57:16;21.40;99.90
52943;DHT22;38809;53.300;6.614;2023-07-30T14:59:42;21.00;99.90
52943;DHT22;38809;53.300;6.614;2023-07-30T15:02:08;21.20;99.90
52943;DHT22;38809;53.300;6.614;2023-07-30T15:04:33;21.10;99.90
52943;DHT22;38809;53.300;6.614;2023-07-30T15:06:59;20.90;99.90
52943;DHT22;38809;53.300;6.614;2023-07-30T15:09:25;21.00;99.90
52943;DHT22;38809;53.300;6.614;2023-07-30T15:11:51;20.90;99.90
52943;DHT22;38809;53.300;6.614;2023-07-30T15:14:16;20.90;99.90
52943;DHT22;38809;53.300;6.614;2023-07-30T15:16:42;20.60;99.90
52943;DHT22;38809;53.300;6.614;2023-07-30T15:19:08;20.30;99.90
52943;DHT22;38809;53.300;6.614;2023-07-30T15:21:33;19.00;99.90
52943;DHT22;38809;53.300;6.614;2023-07-30T15:24:02;18.70;99.90
52943;DHT22;38809;53.300;6.614;2023-07-30T15:26:28;18.10;99.90
52943;DHT22;38809;53.300;6.614;2023-07-30T15:28:53;18.30;99.90